Česky Dansk Deutsch English Español Suomi Français Magyar Italiano Nederlands norsk Polski Português svenska Türkçe

 

Het Weer

Robore (Bolivië)

20:00, 4 augustus 2016 (GMT)

NWNNE
WE
SWSSE
Home            
Robore San Jose De Chiquitos Puerto Suarez San Ignacio De Velasco Corumba Concepcion Nueva Asuncion Viru-Viru Santa Cruz / El Trompillo San Javier Mariscal Estigarribia Camiri Ascencion De Guarayos Cuiaba Aeroporto Villamontes Yacuiba Campo Grande Aeroporto Sucre Concepcion Vilhena Aeroporto Tarija Ponta Pora Intl Tartagal Aerodrome

Om een weerknop op uw website of weblog te plaatsen, copieer onderstaande code en plak die in uw pagina. In het eerste vakje staat HTML-code, in het tweede vakje UBB-code.


Add to Google

Details

Wind speed:4 bf, 15 kn, 7.7 m/s, 17.3 miles/h, 27.8 km/h
Wind direction:N, 360°
Visibility:Greater than 10000 m, 10 km, 32800 ft, 6.2 miles
Temperature:35°C, 95°F
Gefühlte Temperatur:36°C, 97°F
Dew-point:18°C, 64°F
Atmospheric pressure:1013 hPa, 759.8 mmHg, 29.91 inHg, 1.000 atm
Relative humidity:36.7 %
METAR:SLRB 042000Z 36015KT 9999 NSC 35/18 Q1013

Snelkoppelingen

Actuele weersinformatie van de hele wereld. Voeg locaties toe met het plus (+) symbool. Deze snelkoppelingen kunnen worden toegevoegd aan Google.

Lid van de Technetium groep

website free tracking
StatCounter NetStat W3C Validator

27-10-2020 03:42:00
astro.technetium.be money.technetium.be phote.technetium.be tafeltennistafel.technetium.be www.ligfiets.net